sensor_id;sensor_type;location;lat;lon;timestamp;temperature;humidity
1137;DHT22;557;48.466;7.950;2022-12-20T00:01:30;4.00;99.90
1137;DHT22;557;48.466;7.950;2022-12-20T00:04:17;4.00;99.90
1137;DHT22;557;48.466;7.950;2022-12-20T00:07:03;3.90;99.90
1137;DHT22;557;48.466;7.950;2022-12-20T00:09:50;3.90;99.90
1137;DHT22;557;48.466;7.950;2022-12-20T00:12:35;3.80;99.90
1137;DHT22;557;48.466;7.950;2022-12-20T00:15:21;3.90;99.90
1137;DHT22;557;48.466;7.950;2022-12-20T00:18:06;3.90;99.90
1137;DHT22;557;48.466;7.950;2022-12-20T00:20:58;4.00;99.90
1137;DHT22;557;48.466;7.950;2022-12-20T00:23:44;4.00;99.90
1137;DHT22;557;48.466;7.950;2022-12-20T00:26:31;4.10;99.90
1137;DHT22;557;48.466;7.950;2022-12-20T00:29:17;4.10;99.90
1137;DHT22;557;48.466;7.950;2022-12-20T00:32:03;4.10;99.90
1137;DHT22;557;48.466;7.950;2022-12-20T00:34:49;4.20;99.90
1137;DHT22;557;48.466;7.950;2022-12-20T00:37:36;4.30;99.90
1137;DHT22;557;48.466;7.950;2022-12-20T00:40:21;4.30;99.90
1137;DHT22;557;48.466;7.950;2022-12-20T00:43:07;4.30;99.90
1137;DHT22;557;48.466;7.950;2022-12-20T00:45:52;4.30;99.90
1137;DHT22;557;48.466;7.950;2022-12-20T00:48:38;4.40;99.90
1137;DHT22;557;48.466;7.950;2022-12-20T00:51:26;4.40;99.90
1137;DHT22;557;48.466;7.950;2022-12-20T00:54:14;4.50;99.90
1137;DHT22;557;48.466;7.950;2022-12-20T00:56:59;4.60;99.90
1137;DHT22;557;48.466;7.950;2022-12-20T00:59:45;4.60;99.90
1137;DHT22;557;48.466;7.950;2022-12-20T01:02:30;4.70;99.90
1137;DHT22;557;48.466;7.950;2022-12-20T01:05:16;4.70;99.90
1137;DHT22;557;48.466;7.950;2022-12-20T01:08:04;4.70;99.90
1137;DHT22;557;48.466;7.950;2022-12-20T01:10:58;4.70;99.90
1137;DHT22;557;48.466;7.950;2022-12-20T01:13:47;4.70;99.90
1137;DHT22;557;48.466;7.950;2022-12-20T01:16:35;4.70;99.90
1137;DHT22;557;48.466;7.950;2022-12-20T01:19:21;4.80;99.90
1137;DHT22;557;48.466;7.950;2022-12-20T01:22:07;4.80;99.90
1137;DHT22;557;48.466;7.950;2022-12-20T01:24:52;4.70;99.90
1137;DHT22;557;48.466;7.950;2022-12-20T01:27:40;4.60;99.90
1137;DHT22;557;48.466;7.950;2022-12-20T01:30:26;4.50;99.90
1137;DHT22;557;48.466;7.950;2022-12-20T01:33:12;4.40;99.90
1137;DHT22;557;48.466;7.950;2022-12-20T01:36:00;4.20;99.90
1137;DHT22;557;48.466;7.950;2022-12-20T01:38:46;4.10;99.90
1137;DHT22;557;48.466;7.950;2022-12-20T01:41:33;4.10;99.90
1137;DHT22;557;48.466;7.950;2022-12-20T01:44:53;4.10;99.90
1137;DHT22;557;48.466;7.950;2022-12-20T01:47:39;4.20;99.90
1137;DHT22;557;48.466;7.950;2022-12-20T01:50:25;4.20;99.90
1137;DHT22;557;48.466;7.950;2022-12-20T01:53:11;4.20;99.90
1137;DHT22;557;48.466;7.950;2022-12-20T01:55:59;4.10;99.90
1137;DHT22;557;48.466;7.950;2022-12-20T01:58:47;4.20;99.90
1137;DHT22;557;48.466;7.950;2022-12-20T02:01:35;4.20;99.90
1137;DHT22;557;48.466;7.950;2022-12-20T02:04:20;4.20;99.90
1137;DHT22;557;48.466;7.950;2022-12-20T02:07:06;4.20;99.90
1137;DHT22;557;48.466;7.950;2022-12-20T02:09:53;4.20;99.90
1137;DHT22;557;48.466;7.950;2022-12-20T02:12:41;4.30;99.90
1137;DHT22;557;48.466;7.950;2022-12-20T02:15:38;4.30;99.90
1137;DHT22;557;48.466;7.950;2022-12-20T02:18:30;4.40;99.90
1137;DHT22;557;48.466;7.950;2022-12-20T02:21:35;4.40;99.90
1137;DHT22;557;48.466;7.950;2022-12-20T02:24:45;4.40;99.90
1137;DHT22;557;48.466;7.950;2022-12-20T02:27:42;4.40;99.90
1137;DHT22;557;48.466;7.950;2022-12-20T02:30:34;4.30;99.90
1137;DHT22;557;48.466;7.950;2022-12-20T02:33:24;4.30;99.90
1137;DHT22;557;48.466;7.950;2022-12-20T02:36:13;4.30;99.90
1137;DHT22;557;48.466;7.950;2022-12-20T02:38:59;4.30;99.90
1137;DHT22;557;48.466;7.950;2022-12-20T02:41:49;4.30;99.90
1137;DHT22;557;48.466;7.950;2022-12-20T02:44:39;4.30;99.90
1137;DHT22;557;48.466;7.950;2022-12-20T02:47:48;4.40;99.90
1137;DHT22;557;48.466;7.950;2022-12-20T02:50:41;4.40;99.90
1137;DHT22;557;48.466;7.950;2022-12-20T02:53:28;4.40;99.90
1137;DHT22;557;48.466;7.950;2022-12-20T02:56:39;4.60;99.90
1137;DHT22;557;48.466;7.950;2022-12-20T02:59:31;5.00;99.90
1137;DHT22;557;48.466;7.950;2022-12-20T03:02:19;5.20;99.90
1137;DHT22;557;48.466;7.950;2022-12-20T03:05:07;5.20;99.90
1137;DHT22;557;48.466;7.950;2022-12-20T03:07:54;5.30;99.90
1137;DHT22;557;48.466;7.950;2022-12-20T03:10:39;5.30;99.90
1137;DHT22;557;48.466;7.950;2022-12-20T03:13:25;5.30;99.90
1137;DHT22;557;48.466;7.950;2022-12-20T03:16:11;5.40;99.90
1137;DHT22;557;48.466;7.950;2022-12-20T03:18:56;5.30;99.90
1137;DHT22;557;48.466;7.950;2022-12-20T03:21:43;5.20;99.90
1137;DHT22;557;48.466;7.950;2022-12-20T03:24:29;5.10;99.90
1137;DHT22;557;48.466;7.950;2022-12-20T03:27:15;5.00;99.90
1137;DHT22;557;48.466;7.950;2022-12-20T03:30:02;4.90;99.90
1137;DHT22;557;48.466;7.950;2022-12-20T03:32:47;4.80;99.90
1137;DHT22;557;48.466;7.950;2022-12-20T03:35:33;4.70;99.90
1137;DHT22;557;48.466;7.950;2022-12-20T03:38:20;4.80;99.90
1137;DHT22;557;48.466;7.950;2022-12-20T03:41:06;5.00;99.90
1137;DHT22;557;48.466;7.950;2022-12-20T03:43:52;5.10;99.90
1137;DHT22;557;48.466;7.950;2022-12-20T03:46:37;5.10;99.90
1137;DHT22;557;48.466;7.950;2022-12-20T03:49:23;5.10;99.90
1137;DHT22;557;48.466;7.950;2022-12-20T03:52:10;4.90;99.90
1137;DHT22;557;48.466;7.950;2022-12-20T03:54:58;4.90;99.90
1137;DHT22;557;48.466;7.950;2022-12-20T03:57:44;4.80;99.90
1137;DHT22;557;48.466;7.950;2022-12-20T04:00:39;4.80;99.90
1137;DHT22;557;48.466;7.950;2022-12-20T04:03:25;4.70;99.90
1137;DHT22;557;48.466;7.950;2022-12-20T04:06:11;4.70;99.90
1137;DHT22;557;48.466;7.950;2022-12-20T04:08:56;4.70;99.90
1137;DHT22;557;48.466;7.950;2022-12-20T04:11:43;4.60;99.90
1137;DHT22;557;48.466;7.950;2022-12-20T04:14:29;4.60;99.90
1137;DHT22;557;48.466;7.950;2022-12-20T04:17:14;4.60;99.90
1137;DHT22;557;48.466;7.950;2022-12-20T04:20:00;4.60;99.90
1137;DHT22;557;48.466;7.950;2022-12-20T06:08:26;5.10;99.90
1137;DHT22;557;48.466;7.950;2022-12-20T06:11:12;5.10;99.90
1137;DHT22;557;48.466;7.950;2022-12-20T06:13:57;5.10;99.90
1137;DHT22;557;48.466;7.950;2022-12-20T06:16:43;5.10;99.90
1137;DHT22;557;48.466;7.950;2022-12-20T06:19:28;5.20;99.90
1137;DHT22;557;48.466;7.950;2022-12-20T06:22:13;5.20;99.90
1137;DHT22;557;48.466;7.950;2022-12-20T06:25:00;5.10;99.90
1137;DHT22;557;48.466;7.950;2022-12-20T06:27:46;5.10;99.90
1137;DHT22;557;48.466;7.950;2022-12-20T06:30:32;5.10;99.90
1137;DHT22;557;48.466;7.950;2022-12-20T06:33:18;5.10;99.90
1137;DHT22;557;48.466;7.950;2022-12-20T06:36:04;5.00;99.90
1137;DHT22;557;48.466;7.950;2022-12-20T06:38:50;4.90;99.90
1137;DHT22;557;48.466;7.950;2022-12-20T06:41:38;4.80;99.90
1137;DHT22;557;48.466;7.950;2022-12-20T06:44:24;4.70;99.90
1137;DHT22;557;48.466;7.950;2022-12-20T07:23:50;5.10;99.90
1137;DHT22;557;48.466;7.950;2022-12-20T07:26:36;5.10;99.90
1137;DHT22;557;48.466;7.950;2022-12-20T07:29:21;5.10;99.90
1137;DHT22;557;48.466;7.950;2022-12-20T07:32:07;5.00;99.90
1137;DHT22;557;48.466;7.950;2022-12-20T07:34:52;5.00;99.90
1137;DHT22;557;48.466;7.950;2022-12-20T07:37:38;5.00;99.90
1137;DHT22;557;48.466;7.950;2022-12-20T07:40:25;5.00;99.90
1137;DHT22;557;48.466;7.950;2022-12-20T07:43:11;5.00;99.90
1137;DHT22;557;48.466;7.950;2022-12-20T07:45:56;5.00;99.90
1137;DHT22;557;48.466;7.950;2022-12-20T07:48:42;5.20;99.90
1137;DHT22;557;48.466;7.950;2022-12-20T07:51:31;5.30;99.90
1137;DHT22;557;48.466;7.950;2022-12-20T07:54:23;5.50;99.90
1137;DHT22;557;48.466;7.950;2022-12-20T07:57:14;5.70;99.90
1137;DHT22;557;48.466;7.950;2022-12-20T08:00:02;5.90;99.90
1137;DHT22;557;48.466;7.950;2022-12-20T08:02:52;6.00;99.90
1137;DHT22;557;48.466;7.950;2022-12-20T08:05:42;6.10;99.90
1137;DHT22;557;48.466;7.950;2022-12-20T08:08:31;6.10;99.90
1137;DHT22;557;48.466;7.950;2022-12-20T08:11:17;6.10;99.90
1137;DHT22;557;48.466;7.950;2022-12-20T08:14:06;6.10;99.90
1137;DHT22;557;48.466;7.950;2022-12-20T08:16:52;6.20;99.90
1137;DHT22;557;48.466;7.950;2022-12-20T08:19:38;6.30;99.90
1137;DHT22;557;48.466;7.950;2022-12-20T08:22:23;6.40;99.90
1137;DHT22;557;48.466;7.950;2022-12-20T08:25:09;6.50;99.90
1137;DHT22;557;48.466;7.950;2022-12-20T08:27:56;6.60;99.90
1137;DHT22;557;48.466;7.950;2022-12-20T08:30:46;6.50;99.90
1137;DHT22;557;48.466;7.950;2022-12-20T08:33:32;6.50;99.90
1137;DHT22;557;48.466;7.950;2022-12-20T08:36:18;6.50;99.90
1137;DHT22;557;48.466;7.950;2022-12-20T08:39:04;6.60;99.90
1137;DHT22;557;48.466;7.950;2022-12-20T08:41:49;6.70;99.90
1137;DHT22;557;48.466;7.950;2022-12-20T08:44:35;6.90;99.90
1137;DHT22;557;48.466;7.950;2022-12-20T08:47:22;7.00;99.90
1137;DHT22;557;48.466;7.950;2022-12-20T08:50:08;7.10;99.90
1137;DHT22;557;48.466;7.950;2022-12-20T08:52:54;7.10;99.90
1137;DHT22;557;48.466;7.950;2022-12-20T08:55:40;7.00;99.90
1137;DHT22;557;48.466;7.950;2022-12-20T08:58:25;7.00;99.90
1137;DHT22;557;48.466;7.950;2022-12-20T09:01:13;7.10;99.90
1137;DHT22;557;48.466;7.950;2022-12-20T09:04:00;7.20;99.90
1137;DHT22;557;48.466;7.950;2022-12-20T09:06:46;7.40;94.00
1137;DHT22;557;48.466;7.950;2022-12-20T09:09:32;7.60;69.00
1137;DHT22;557;48.466;7.950;2022-12-20T09:12:18;7.70;57.20
1137;DHT22;557;48.466;7.950;2022-12-20T09:15:05;7.80;37.60
1137;DHT22;557;48.466;7.950;2022-12-20T09:17:50;7.80;9.50
1137;DHT22;557;48.466;7.950;2022-12-20T09:20:41;7.80;3.50
1137;DHT22;557;48.466;7.950;2022-12-20T09:23:27;7.90;4.00
1137;DHT22;557;48.466;7.950;2022-12-20T09:26:14;7.80;7.30
1137;DHT22;557;48.466;7.950;2022-12-20T09:29:00;7.60;14.50
1137;DHT22;557;48.466;7.950;2022-12-20T09:31:48;7.40;26.20
1137;DHT22;557;48.466;7.950;2022-12-20T09:34:33;7.30;44.20
1137;DHT22;557;48.466;7.950;2022-12-20T09:37:20;7.10;53.00
1137;DHT22;557;48.466;7.950;2022-12-20T09:40:09;7.00;57.10
1137;DHT22;557;48.466;7.950;2022-12-20T09:42:56;7.00;73.60
1137;DHT22;557;48.466;7.950;2022-12-20T09:45:44;7.10;56.30
1137;DHT22;557;48.466;7.950;2022-12-20T09:48:34;7.20;45.10
1137;DHT22;557;48.466;7.950;2022-12-20T09:51:39;7.20;36.20
1137;DHT22;557;48.466;7.950;2022-12-20T09:54:36;7.30;31.60
1137;DHT22;557;48.466;7.950;2022-12-20T09:57:31;7.20;29.40
1137;DHT22;557;48.466;7.950;2022-12-20T10:00:19;7.20;44.00
1137;DHT22;557;48.466;7.950;2022-12-20T10:03:09;7.10;42.10
1137;DHT22;557;48.466;7.950;2022-12-20T10:05:58;7.10;31.20
1137;DHT22;557;48.466;7.950;2022-12-20T10:08:49;7.30;22.80
1137;DHT22;557;48.466;7.950;2022-12-20T10:11:48;7.40;1.00
1137;DHT22;557;48.466;7.950;2022-12-20T10:14:59;7.50;1.00
1137;DHT22;557;48.466;7.950;2022-12-20T10:18:08;7.50;1.00
1137;DHT22;557;48.466;7.950;2022-12-20T10:21:02;7.50;1.00
1137;DHT22;557;48.466;7.950;2022-12-20T10:23:57;7.50;1.00
1137;DHT22;557;48.466;7.950;2022-12-20T10:26:48;7.60;1.30
1137;DHT22;557;48.466;7.950;2022-12-20T10:29:34;7.60;13.70
1137;DHT22;557;48.466;7.950;2022-12-20T10:32:22;7.60;14.90
1137;DHT22;557;48.466;7.950;2022-12-20T10:35:21;7.70;14.00
1137;DHT22;557;48.466;7.950;2022-12-20T10:38:10;7.80;28.30
1137;DHT22;557;48.466;7.950;2022-12-20T10:41:00;8.00;16.00
1137;DHT22;557;48.466;7.950;2022-12-20T10:43:52;8.10;5.70
1137;DHT22;557;48.466;7.950;2022-12-20T10:46:42;8.20;1.00
1137;DHT22;557;48.466;7.950;2022-12-20T10:49:31;8.20;1.00
1137;DHT22;557;48.466;7.950;2022-12-20T10:52:17;8.30;1.00
1137;DHT22;557;48.466;7.950;2022-12-20T10:55:31;8.30;1.00
1137;DHT22;557;48.466;7.950;2022-12-20T10:58:29;8.40;1.00
1137;DHT22;557;48.466;7.950;2022-12-20T11:01:19;8.60;1.00
1137;DHT22;557;48.466;7.950;2022-12-20T11:04:19;8.90;1.00
1137;DHT22;557;48.466;7.950;2022-12-20T11:07:23;9.10;1.00
1137;DHT22;557;48.466;7.950;2022-12-20T11:10:17;9.30;1.00
1137;DHT22;557;48.466;7.950;2022-12-20T11:13:04;9.30;1.00
1137;DHT22;557;48.466;7.950;2022-12-20T11:15:52;9.40;1.00
1137;DHT22;557;48.466;7.950;2022-12-20T11:18:46;9.50;1.00
1137;DHT22;557;48.466;7.950;2022-12-20T11:21:41;9.60;1.00
1137;DHT22;557;48.466;7.950;2022-12-20T11:24:33;9.70;99.90
1137;DHT22;557;48.466;7.950;2022-12-20T11:27:26;9.70;99.90
1137;DHT22;557;48.466;7.950;2022-12-20T11:30:18;9.70;99.90
1137;DHT22;557;48.466;7.950;2022-12-20T11:33:17;9.70;99.90
1137;DHT22;557;48.466;7.950;2022-12-20T11:36:15;9.70;99.90
1137;DHT22;557;48.466;7.950;2022-12-20T11:39:12;9.70;99.90
1137;DHT22;557;48.466;7.950;2022-12-20T11:42:04;9.70;1.00
1137;DHT22;557;48.466;7.950;2022-12-20T11:44:58;9.70;99.90
1137;DHT22;557;48.466;7.950;2022-12-20T11:48:01;9.80;99.90
1137;DHT22;557;48.466;7.950;2022-12-20T11:50:57;9.80;99.90
1137;DHT22;557;48.466;7.950;2022-12-20T11:53:51;9.90;99.90
1137;DHT22;557;48.466;7.950;2022-12-20T11:56:41;10.00;99.90
1137;DHT22;557;48.466;7.950;2022-12-20T11:59:34;10.20;1.00
1137;DHT22;557;48.466;7.950;2022-12-20T12:02:26;10.30;1.00
1137;DHT22;557;48.466;7.950;2022-12-20T12:05:18;10.40;1.00
1137;DHT22;557;48.466;7.950;2022-12-20T12:08:10;10.40;99.90
1137;DHT22;557;48.466;7.950;2022-12-20T12:11:01;10.30;1.00
1137;DHT22;557;48.466;7.950;2022-12-20T12:13:49;10.10;1.00
1137;DHT22;557;48.466;7.950;2022-12-20T12:16:39;10.00;21.30
1137;DHT22;557;48.466;7.950;2022-12-20T12:19:28;9.90;99.90
1137;DHT22;557;48.466;7.950;2022-12-20T12:22:17;9.80;99.90
1137;DHT22;557;48.466;7.950;2022-12-20T12:25:10;9.90;99.90
1137;DHT22;557;48.466;7.950;2022-12-20T12:27:59;10.00;1.00
1137;DHT22;557;48.466;7.950;2022-12-20T12:30:50;10.20;1.00
1137;DHT22;557;48.466;7.950;2022-12-20T12:33:41;10.50;1.00
1137;DHT22;557;48.466;7.950;2022-12-20T12:36:44;10.70;1.00
1137;DHT22;557;48.466;7.950;2022-12-20T12:39:46;10.60;99.90
1137;DHT22;557;48.466;7.950;2022-12-20T12:42:56;10.50;1.00
1137;DHT22;557;48.466;7.950;2022-12-20T12:45:46;10.60;1.00
1137;DHT22;557;48.466;7.950;2022-12-20T12:48:35;10.60;1.00
1137;DHT22;557;48.466;7.950;2022-12-20T12:51:27;10.60;1.00
1137;DHT22;557;48.466;7.950;2022-12-20T12:54:18;10.60;99.90
1137;DHT22;557;48.466;7.950;2022-12-20T12:57:10;10.50;1.00
1137;DHT22;557;48.466;7.950;2022-12-20T12:59:57;10.50;1.00
1137;DHT22;557;48.466;7.950;2022-12-20T13:02:51;10.50;99.90
1137;DHT22;557;48.466;7.950;2022-12-20T13:05:36;10.40;50.80
1137;DHT22;557;48.466;7.950;2022-12-20T13:08:46;10.40;99.90
1137;DHT22;557;48.466;7.950;2022-12-20T13:11:33;10.20;1.00
1137;DHT22;557;48.466;7.950;2022-12-20T13:14:46;10.10;99.90
1137;DHT22;557;48.466;7.950;2022-12-20T13:17:49;10.10;42.60
1137;DHT22;557;48.466;7.950;2022-12-20T13:20:36;10.20;1.00
1137;DHT22;557;48.466;7.950;2022-12-20T13:23:22;10.30;99.90
1137;DHT22;557;48.466;7.950;2022-12-20T13:26:41;10.50;99.90
1137;DHT22;557;48.466;7.950;2022-12-20T13:29:34;10.60;99.90
1137;DHT22;557;48.466;7.950;2022-12-20T13:32:53;10.60;1.00
1137;DHT22;557;48.466;7.950;2022-12-20T13:39:30;10.50;1.00
1137;DHT22;557;48.466;7.950;2022-12-20T13:42:29;10.40;1.00
1137;DHT22;557;48.466;7.950;2022-12-20T13:45:17;10.20;1.00
1137;DHT22;557;48.466;7.950;2022-12-20T13:48:05;10.10;99.90
1137;DHT22;557;48.466;7.950;2022-12-20T13:50:53;10.00;99.90
1137;DHT22;557;48.466;7.950;2022-12-20T13:53:39;10.00;99.90
1137;DHT22;557;48.466;7.950;2022-12-20T13:56:34;10.00;99.90
1137;DHT22;557;48.466;7.950;2022-12-20T13:59:24;10.20;99.90
1137;DHT22;557;48.466;7.950;2022-12-20T14:02:17;10.30;99.90
1137;DHT22;557;48.466;7.950;2022-12-20T14:05:12;10.30;1.00
1137;DHT22;557;48.466;7.950;2022-12-20T14:08:00;10.40;1.00
1137;DHT22;557;48.466;7.950;2022-12-20T14:10:46;10.50;25.10
1137;DHT22;557;48.466;7.950;2022-12-20T14:13:32;10.60;99.90
1137;DHT22;557;48.466;7.950;2022-12-20T14:16:18;10.50;99.90
1137;DHT22;557;48.466;7.950;2022-12-20T14:19:06;10.40;1.00
1137;DHT22;557;48.466;7.950;2022-12-20T14:21:53;10.30;1.00
1137;DHT22;557;48.466;7.950;2022-12-20T14:24:40;10.40;1.00
1137;DHT22;557;48.466;7.950;2022-12-20T14:27:32;10.40;1.00
1137;DHT22;557;48.466;7.950;2022-12-20T14:30:29;10.50;1.00
1137;DHT22;557;48.466;7.950;2022-12-20T14:33:24;10.30;1.00
1137;DHT22;557;48.466;7.950;2022-12-20T14:36:18;10.30;32.80
1137;DHT22;557;48.466;7.950;2022-12-20T14:39:23;10.30;3.80
1137;DHT22;557;48.466;7.950;2022-12-20T14:42:12;10.30;97.00
1137;DHT22;557;48.466;7.950;2022-12-20T14:45:06;10.20;99.90
1137;DHT22;557;48.466;7.950;2022-12-20T14:48:02;10.00;99.90
1137;DHT22;557;48.466;7.950;2022-12-20T14:50:51;9.80;99.90
1137;DHT22;557;48.466;7.950;2022-12-20T14:53:38;9.60;1.00
1137;DHT22;557;48.466;7.950;2022-12-20T14:56:26;9.40;1.00
1137;DHT22;557;48.466;7.950;2022-12-20T14:59:14;9.50;1.00
1137;DHT22;557;48.466;7.950;2022-12-20T15:02:30;9.40;1.00
1137;DHT22;557;48.466;7.950;2022-12-20T15:05:49;9.50;1.00
1137;DHT22;557;48.466;7.950;2022-12-20T15:08:36;9.60;1.00
1137;DHT22;557;48.466;7.950;2022-12-20T15:11:22;9.70;1.00
1137;DHT22;557;48.466;7.950;2022-12-20T15:14:20;9.60;1.00
1137;DHT22;557;48.466;7.950;2022-12-20T15:17:10;9.60;1.00
1137;DHT22;557;48.466;7.950;2022-12-20T15:19:56;9.70;1.00
1137;DHT22;557;48.466;7.950;2022-12-20T15:22:41;9.80;99.90
1137;DHT22;557;48.466;7.950;2022-12-20T15:25:29;9.90;99.90
1137;DHT22;557;48.466;7.950;2022-12-20T15:28:20;9.90;99.90
1137;DHT22;557;48.466;7.950;2022-12-20T15:31:09;9.80;99.90
1137;DHT22;557;48.466;7.950;2022-12-20T15:33:58;9.60;1.00
1137;DHT22;557;48.466;7.950;2022-12-20T15:36:45;9.60;1.00
1137;DHT22;557;48.466;7.950;2022-12-20T15:39:31;9.40;1.00
1137;DHT22;557;48.466;7.950;2022-12-20T15:42:19;9.40;1.00
1137;DHT22;557;48.466;7.950;2022-12-20T15:45:10;9.40;1.00
1137;DHT22;557;48.466;7.950;2022-12-20T15:47:57;9.40;1.00
1137;DHT22;557;48.466;7.950;2022-12-20T15:50:48;9.50;1.00
1137;DHT22;557;48.466;7.950;2022-12-20T15:53:34;9.40;1.00
1137;DHT22;557;48.466;7.950;2022-12-20T15:56:22;9.50;1.00
1137;DHT22;557;48.466;7.950;2022-12-20T15:59:08;9.60;1.00
1137;DHT22;557;48.466;7.950;2022-12-20T16:01:55;9.70;1.00
1137;DHT22;557;48.466;7.950;2022-12-20T16:04:42;9.70;1.00
1137;DHT22;557;48.466;7.950;2022-12-20T16:07:28;9.80;99.90
1137;DHT22;557;48.466;7.950;2022-12-20T16:10:14;9.90;99.90
1137;DHT22;557;48.466;7.950;2022-12-20T16:13:00;9.90;99.90
1137;DHT22;557;48.466;7.950;2022-12-20T16:15:45;9.90;99.90
1137;DHT22;557;48.466;7.950;2022-12-20T16:18:31;9.90;99.90
1137;DHT22;557;48.466;7.950;2022-12-20T16:21:20;9.90;99.90
1137;DHT22;557;48.466;7.950;2022-12-20T16:24:10;9.90;99.90
1137;DHT22;557;48.466;7.950;2022-12-20T16:26:56;9.90;99.90
1137;DHT22;557;48.466;7.950;2022-12-20T16:29:42;9.90;99.90
1137;DHT22;557;48.466;7.950;2022-12-20T16:32:28;9.90;99.90
1137;DHT22;557;48.466;7.950;2022-12-20T16:35:22;9.90;99.90
1137;DHT22;557;48.466;7.950;2022-12-20T16:38:09;9.90;99.90
1137;DHT22;557;48.466;7.950;2022-12-20T16:40:55;9.80;99.90
1137;DHT22;557;48.466;7.950;2022-12-20T16:43:46;9.70;1.00
1137;DHT22;557;48.466;7.950;2022-12-20T16:46:32;9.80;99.90
1137;DHT22;557;48.466;7.950;2022-12-20T16:49:17;9.90;99.90
1137;DHT22;557;48.466;7.950;2022-12-20T16:52:04;9.90;99.90
1137;DHT22;557;48.466;7.950;2022-12-20T16:54:51;10.00;99.90
1137;DHT22;557;48.466;7.950;2022-12-20T16:57:37;10.00;99.90
1137;DHT22;557;48.466;7.950;2022-12-20T17:00:25;10.00;99.90
1137;DHT22;557;48.466;7.950;2022-12-20T17:03:12;9.90;99.90
1137;DHT22;557;48.466;7.950;2022-12-20T17:05:58;9.70;99.90
1137;DHT22;557;48.466;7.950;2022-12-20T17:08:44;9.50;1.00
1137;DHT22;557;48.466;7.950;2022-12-20T17:11:31;9.40;1.00
1137;DHT22;557;48.466;7.950;2022-12-20T17:14:17;9.40;1.00
1137;DHT22;557;48.466;7.950;2022-12-20T17:17:02;9.40;1.00
1137;DHT22;557;48.466;7.950;2022-12-20T17:19:48;9.60;1.00
1137;DHT22;557;48.466;7.950;2022-12-20T17:22:33;9.80;99.90
1137;DHT22;557;48.466;7.950;2022-12-20T17:25:21;9.90;99.90
1137;DHT22;557;48.466;7.950;2022-12-20T17:28:09;10.00;99.90
1137;DHT22;557;48.466;7.950;2022-12-20T17:30:55;10.10;12.70
1137;DHT22;557;48.466;7.950;2022-12-20T17:33:40;10.10;1.60
1137;DHT22;557;48.466;7.950;2022-12-20T17:36:26;9.90;99.90
1137;DHT22;557;48.466;7.950;2022-12-20T17:39:12;9.80;99.90
1137;DHT22;557;48.466;7.950;2022-12-20T17:41:58;9.80;99.90
1137;DHT22;557;48.466;7.950;2022-12-20T17:44:45;9.60;99.90
1137;DHT22;557;48.466;7.950;2022-12-20T17:47:31;9.40;1.00
1137;DHT22;557;48.466;7.950;2022-12-20T17:50:17;9.10;1.00
1137;DHT22;557;48.466;7.950;2022-12-20T17:53:04;8.90;1.00
1137;DHT22;557;48.466;7.950;2022-12-20T17:55:49;9.00;1.00
1137;DHT22;557;48.466;7.950;2022-12-20T17:58:35;9.00;1.00
1137;DHT22;557;48.466;7.950;2022-12-20T18:01:24;9.00;1.00
1137;DHT22;557;48.466;7.950;2022-12-20T18:04:11;9.10;1.00
1137;DHT22;557;48.466;7.950;2022-12-20T18:06:57;9.20;1.00
1137;DHT22;557;48.466;7.950;2022-12-20T18:09:45;9.40;1.00
1137;DHT22;557;48.466;7.950;2022-12-20T18:12:32;9.50;1.00
1137;DHT22;557;48.466;7.950;2022-12-20T18:15:17;9.60;1.00
1137;DHT22;557;48.466;7.950;2022-12-20T18:18:04;9.70;99.90
1137;DHT22;557;48.466;7.950;2022-12-20T18:20:50;9.80;99.90
1137;DHT22;557;48.466;7.950;2022-12-20T18:23:46;9.80;99.90
1137;DHT22;557;48.466;7.950;2022-12-20T18:26:32;9.80;99.90
1137;DHT22;557;48.466;7.950;2022-12-20T18:29:18;9.80;99.90
1137;DHT22;557;48.466;7.950;2022-12-20T18:32:05;9.60;1.00
1137;DHT22;557;48.466;7.950;2022-12-20T18:34:51;9.50;1.00
1137;DHT22;557;48.466;7.950;2022-12-20T18:37:37;9.40;1.00
1137;DHT22;557;48.466;7.950;2022-12-20T18:40:23;9.30;1.00
1137;DHT22;557;48.466;7.950;2022-12-20T18:43:08;9.30;1.00
1137;DHT22;557;48.466;7.950;2022-12-20T18:45:54;9.20;1.00
1137;DHT22;557;48.466;7.950;2022-12-20T18:48:41;9.20;1.00
1137;DHT22;557;48.466;7.950;2022-12-20T18:51:30;9.20;1.00
1137;DHT22;557;48.466;7.950;2022-12-20T18:54:15;9.20;1.00
1137;DHT22;557;48.466;7.950;2022-12-20T18:57:01;9.20;1.00
1137;DHT22;557;48.466;7.950;2022-12-20T18:59:48;9.20;1.00
1137;DHT22;557;48.466;7.950;2022-12-20T19:02:34;9.30;1.00
1137;DHT22;557;48.466;7.950;2022-12-20T19:05:20;9.40;1.00
1137;DHT22;557;48.466;7.950;2022-12-20T19:08:09;9.50;1.00
1137;DHT22;557;48.466;7.950;2022-12-20T19:10:57;9.60;1.00
1137;DHT22;557;48.466;7.950;2022-12-20T19:13:44;9.70;1.00
1137;DHT22;557;48.466;7.950;2022-12-20T19:16:30;9.70;1.00
1137;DHT22;557;48.466;7.950;2022-12-20T19:19:16;9.80;1.00
1137;DHT22;557;48.466;7.950;2022-12-20T19:22:02;9.90;99.90
1137;DHT22;557;48.466;7.950;2022-12-20T19:24:48;9.90;1.00
1137;DHT22;557;48.466;7.950;2022-12-20T19:27:34;9.80;1.00
1137;DHT22;557;48.466;7.950;2022-12-20T19:30:20;9.80;1.00
1137;DHT22;557;48.466;7.950;2022-12-20T19:33:06;9.70;1.00
1137;DHT22;557;48.466;7.950;2022-12-20T19:35:51;9.60;1.00
1137;DHT22;557;48.466;7.950;2022-12-20T19:38:40;9.30;1.00
1137;DHT22;557;48.466;7.950;2022-12-20T19:41:29;9.10;15.20
1137;DHT22;557;48.466;7.950;2022-12-20T19:44:15;8.90;45.70
1137;DHT22;557;48.466;7.950;2022-12-20T19:47:00;8.90;82.80
1137;DHT22;557;48.466;7.950;2022-12-20T19:49:46;8.80;99.90
1137;DHT22;557;48.466;7.950;2022-12-20T19:52:31;8.80;99.90
1137;DHT22;557;48.466;7.950;2022-12-20T19:55:17;8.70;99.90
1137;DHT22;557;48.466;7.950;2022-12-20T19:58:04;8.70;99.90
1137;DHT22;557;48.466;7.950;2022-12-20T20:00:51;8.60;99.90
1137;DHT22;557;48.466;7.950;2022-12-20T20:03:37;8.40;99.90
1137;DHT22;557;48.466;7.950;2022-12-20T20:06:23;8.40;99.90
1137;DHT22;557;48.466;7.950;2022-12-20T20:09:09;8.30;99.90
1137;DHT22;557;48.466;7.950;2022-12-20T20:11:55;8.30;99.90
1137;DHT22;557;48.466;7.950;2022-12-20T20:14:42;8.20;99.90
1137;DHT22;557;48.466;7.950;2022-12-20T20:17:29;8.10;99.90
1137;DHT22;557;48.466;7.950;2022-12-20T20:20:14;8.10;99.90
1137;DHT22;557;48.466;7.950;2022-12-20T20:23:00;8.00;99.90
1137;DHT22;557;48.466;7.950;2022-12-20T20:25:46;8.00;99.90
1137;DHT22;557;48.466;7.950;2022-12-20T20:28:32;8.00;99.90
1137;DHT22;557;48.466;7.950;2022-12-20T20:31:20;8.00;99.90
1137;DHT22;557;48.466;7.950;2022-12-20T20:34:07;7.90;99.90
1137;DHT22;557;48.466;7.950;2022-12-20T20:36:55;7.80;99.90
1137;DHT22;557;48.466;7.950;2022-12-20T20:39:41;7.80;99.90
1137;DHT22;557;48.466;7.950;2022-12-20T20:42:31;7.80;99.90
1137;DHT22;557;48.466;7.950;2022-12-20T20:45:16;7.70;99.90
1137;DHT22;557;48.466;7.950;2022-12-20T20:48:04;7.70;99.90
1137;DHT22;557;48.466;7.950;2022-12-20T20:50:50;7.80;99.90
1137;DHT22;557;48.466;7.950;2022-12-20T20:53:37;7.70;99.90
1137;DHT22;557;48.466;7.950;2022-12-20T20:56:22;7.80;99.90
1137;DHT22;557;48.466;7.950;2022-12-20T20:59:08;7.80;99.90
1137;DHT22;557;48.466;7.950;2022-12-20T21:01:54;7.80;99.90
1137;DHT22;557;48.466;7.950;2022-12-20T21:04:41;7.80;99.90
1137;DHT22;557;48.466;7.950;2022-12-20T21:07:27;7.90;99.90
1137;DHT22;557;48.466;7.950;2022-12-20T21:10:13;7.90;99.90
1137;DHT22;557;48.466;7.950;2022-12-20T21:13:01;7.90;99.90
1137;DHT22;557;48.466;7.950;2022-12-20T21:16:06;8.00;99.90
1137;DHT22;557;48.466;7.950;2022-12-20T21:18:52;8.00;99.90
1137;DHT22;557;48.466;7.950;2022-12-20T21:21:39;8.00;99.90
1137;DHT22;557;48.466;7.950;2022-12-20T21:24:25;8.10;99.90
1137;DHT22;557;48.466;7.950;2022-12-20T21:27:11;8.10;99.90
1137;DHT22;557;48.466;7.950;2022-12-20T21:29:56;8.10;99.90